Time;durP1;ratioP1;P1;durP2;ratioP2;P2;SDS_P1;SDS_P2;PMS_P1;PMS_P2;Temp;Humidity;BMP_temperature;BMP_pressure;BME280_temperature;BME280_humidity;BME280_pressure;Samples;Min_cycle;Max_cycle;Signal;HPM_P1;HPM_P2
2023/11/12 00:00:02;;;;;;;10.07;5.88;;;;;;;1.73;nan;95210.81;2042125;29;20364;-53
2023/11/12 00:01:06;;;;;;;7.47;5.30;;;;;;;1.78;nan;95215.81;2041939;29;20051;-53
2023/11/12 00:02:07;;;;;;;10.18;6.35;;;;;;;1.79;nan;95211.53;2042241;29;20047;-52
2023/11/12 00:03:08;;;;;;;7.72;5.53;;;;;;;1.79;nan;95211.53;2042075;29;20067;-53
2023/11/12 00:04:09;;;;;;;11.05;5.50;;;;;;;1.80;nan;95203.84;2041890;29;20408;-53
2023/11/12 00:05:11;;;;;;;7.45;5.10;;;;;;;1.82;nan;95208.91;2042149;29;20062;-53
2023/11/12 00:06:12;;;;;;;8.13;5.15;;;;;;;1.82;nan;95211.44;2042275;29;20436;-53
2023/11/12 00:07:13;;;;;;;7.72;5.65;;;;;;;1.83;nan;95201.19;2042141;29;20059;-53
2023/11/12 00:08:14;;;;;;;7.65;5.38;;;;;;;1.83;nan;95203.75;2041883;29;20051;-53
2023/11/12 00:09:16;;;;;;;8.30;5.30;;;;;;;1.85;nan;95207.13;2041653;29;20086;-53
2023/11/12 00:10:17;;;;;;;7.95;5.63;;;;;;;1.82;nan;95194.41;2042108;29;20056;-52
2023/11/12 00:11:18;;;;;;;8.73;6.25;;;;;;;1.85;nan;95202.00;2042008;29;20074;-53
2023/11/12 00:12:20;;;;;;;10.60;6.70;;;;;;;1.85;nan;95203.72;2041814;29;20047;-53
2023/11/12 00:13:21;;;;;;;8.02;5.75;;;;;;;1.88;nan;95201.91;2042222;29;20469;-53
2023/11/12 00:14:23;;;;;;;7.07;4.90;;;;;;;1.88;nan;95203.63;2042336;29;20047;-53
2023/11/12 00:15:24;;;;;;;7.35;5.22;;;;;;;1.88;nan;95194.22;2041630;29;20060;-53
2023/11/12 00:16:25;;;;;;;8.75;5.90;;;;;;;1.90;nan;95194.19;2042198;29;20048;-53
2023/11/12 00:17:26;;;;;;;9.95;5.93;;;;;;;1.90;nan;95194.19;2041925;29;20059;-53
2023/11/12 00:18:27;;;;;;;12.88;5.72;;;;;;;1.89;nan;95192.50;2042264;29;20476;-53
2023/11/12 00:19:30;;;;;;;9.68;5.82;;;;;;;1.91;nan;95193.31;2041747;29;20062;-53
2023/11/12 00:20:31;;;;;;;6.85;5.18;;;;;;;1.93;nan;95199.25;2041868;29;20058;-53
2023/11/12 00:21:32;;;;;;;9.57;6.47;;;;;;;1.94;nan;95195.78;2041966;29;20039;-53
2023/11/12 00:22:34;;;;;;;8.70;4.90;;;;;;;1.95;nan;95197.44;2042064;29;20043;-52
2023/11/12 00:23:36;;;;;;;9.27;5.95;;;;;;;1.96;nan;95189.75;2041839;29;20060;-52
2023/11/12 00:24:37;;;;;;;7.70;5.82;;;;;;;1.97;nan;95186.28;2042274;29;20053;-53
2023/11/12 00:25:38;;;;;;;8.35;5.07;;;;;;;1.99;nan;95186.25;2041594;29;20062;-53
2023/11/12 00:26:39;;;;;;;8.25;5.20;;;;;;;1.99;nan;95187.09;2042193;29;20043;-53
2023/11/12 00:27:40;;;;;;;9.20;5.55;;;;;;;2.04;nan;95186.16;2041883;29;20063;-53
2023/11/12 00:28:42;;;;;;;9.88;5.75;;;;;;;2.04;nan;95186.16;2041911;29;20052;-53
2023/11/12 00:29:43;;;;;;;10.15;6.50;;;;;;;2.04;nan;95186.16;2042084;29;20427;-53
2023/11/12 00:30:44;;;;;;;7.05;4.90;;;;;;;2.08;nan;95180.03;2042171;29;20043;-53
2023/11/12 00:31:45;;;;;;;8.02;5.82;;;;;;;2.09;nan;95185.13;2033592;29;20051;-52
2023/11/12 00:32:47;;;;;;;9.27;5.30;;;;;;;2.11;nan;95183.38;2032849;29;20058;-53
2023/11/12 00:33:48;;;;;;;6.43;4.57;;;;;;;2.09;nan;95176.63;2025679;29;20052;-53
2023/11/12 00:34:49;;;;;;;10.50;5.45;;;;;;;2.14;nan;95182.47;2033475;29;20040;-53
2023/11/12 00:35:50;;;;;;;7.80;5.63;;;;;;;2.16;nan;95180.69;2041495;29;20100;-53
2023/11/12 00:36:51;;;;;;;7.80;5.78;;;;;;;2.15;nan;95173.88;2042060;29;20060;-53
2023/11/12 00:37:53;;;;;;;8.57;4.95;;;;;;;2.16;nan;95184.06;2041977;29;20054;-53
2023/11/12 00:38:55;;;;;;;7.82;5.20;;;;;;;2.18;nan;95178.91;2033239;29;20052;-53
2023/11/12 00:39:56;;;;;;;10.55;5.70;;;;;;;2.21;nan;95179.66;2033673;29;20504;-53
2023/11/12 00:40:57;;;;;;;8.43;5.38;;;;;;;2.20;nan;95175.44;2041823;29;20055;-53
2023/11/12 00:41:59;;;;;;;7.80;5.65;;;;;;;2.20;nan;95174.59;2041602;29;20488;-53
2023/11/12 00:43:02;;;;;;;7.00;4.85;;;;;;;2.27;nan;95182.94;2041977;29;20044;-53
2023/11/12 00:44:03;;;;;;;8.07;5.57;;;;;;;2.24;nan;95172.78;2042017;29;20056;-53
2023/11/12 00:45:05;;;;;;;8.32;5.40;;;;;;;2.23;nan;95173.69;2041755;29;20059;-53
2023/11/12 00:46:06;;;;;;;7.18;5.18;;;;;;;2.27;nan;95181.22;2041729;29;20056;-53
2023/11/12 00:47:07;;;;;;;7.03;5.22;;;;;;;2.31;nan;95174.31;2041853;29;20059;-53
2023/11/12 00:48:08;;;;;;;9.93;4.82;;;;;;;2.31;nan;95180.25;2041492;29;20063;-52
2023/11/12 00:49:09;;;;;;;8.10;5.32;;;;;;;2.32;nan;95173.41;2041886;29;20088;-53
2023/11/12 00:50:16;;;;;;;7.85;5.10;;;;;;;2.32;nan;95176.81;2041967;29;20067;-53
2023/11/12 00:51:17;;;;;;;8.68;5.10;;;;;;;2.33;nan;95178.50;2041824;29;20200;-53
2023/11/12 00:52:18;;;;;;;11.60;5.43;;;;;;;2.34;nan;95169.09;2033409;29;20063;-53
2023/11/12 00:53:19;;;;;;;7.57;4.93;;;;;;;2.37;nan;95172.38;2026084;29;20142;-53
2023/11/12 00:54:20;;;;;;;8.68;5.10;;;;;;;2.36;nan;95169.88;2025521;29;20064;-53
2023/11/12 00:55:21;;;;;;;9.48;4.90;;;;;;;2.34;nan;95167.34;2033752;29;20381;-53
2023/11/12 00:56:22;;;;;;;6.32;4.47;;;;;;;2.38;nan;95170.69;2033257;29;20047;-53
2023/11/12 00:57:24;;;;;;;6.45;5.05;;;;;;;2.38;nan;95171.53;2033388;29;20102;-53
2023/11/12 00:58:28;;;;;;;7.45;5.32;;;;;;;2.39;nan;95173.19;2032962;29;20060;-53
2023/11/12 00:59:29;;;;;;;8.70;5.72;;;;;;;2.43;nan;95172.25;2033719;29;20067;-53
2023/11/12 01:00:30;;;;;;;10.98;5.35;;;;;;;2.46;nan;95163.63;2033503;29;20051;-53
2023/11/12 01:01:32;;;;;;;6.45;4.63;;;;;;;2.43;nan;95168.81;2033306;29;20052;-53
2023/11/12 01:02:33;;;;;;;11.18;4.95;;;;;;;2.43;nan;95166.25;2041083;29;20098;-53
2023/11/12 01:03:34;;;;;;;8.70;4.90;;;;;;;2.43;nan;95159.44;2041936;29;20044;-53
2023/11/12 01:04:35;;;;;;;8.70;5.38;;;;;;;2.45;nan;95166.22;2041793;29;20047;-53
2023/11/12 01:05:38;;;;;;;8.18;5.30;;;;;;;2.49;nan;95167.81;2041897;29;20058;-53
2023/11/12 01:06:39;;;;;;;7.47;4.72;;;;;;;2.41;nan;95156.06;2041403;29;20094;-53
2023/11/12 01:07:40;;;;;;;8.52;4.60;;;;;;;2.41;nan;95158.63;2041218;29;20047;-53
2023/11/12 01:08:41;;;;;;;7.97;5.30;;;;;;;2.43;nan;95159.44;2041579;29;20043;-53
2023/11/12 01:09:42;;;;;;;7.30;5.55;;;;;;;2.43;nan;95158.56;2041799;29;20404;-53
2023/11/12 01:10:43;;;;;;;9.80;5.30;;;;;;;2.43;nan;95164.56;2041915;29;20054;-53
2023/11/12 01:11:44;;;;;;;6.15;4.65;;;;;;;2.43;nan;95158.56;2041685;29;20051;-53
2023/11/12 01:12:46;;;;;;;9.25;5.10;;;;;;;2.38;nan;95151.03;2041406;29;20063;-53
2023/11/12 01:13:47;;;;;;;7.85;5.35;;;;;;;2.44;nan;95155.13;2033216;29;20060;-53
2023/11/12 01:14:51;;;;;;;7.38;5.22;;;;;;;2.47;nan;95156.78;2033475;29;20043;-53
2023/11/12 01:15:55;;;;;;;8.55;5.53;;;;;;;2.47;nan;95152.47;2033069;29;20108;-53
2023/11/12 01:16:57;;;;;;;6.55;5.10;;;;;;;2.46;nan;95147.38;2033360;29;20056;-54
2023/11/12 01:17:58;;;;;;;9.23;5.10;;;;;;;2.49;nan;95152.44;2033511;29;20382;-53
2023/11/12 01:19:00;;;;;;;6.97;5.63;;;;;;;2.48;nan;95151.59;2025129;29;20072;-53
2023/11/12 01:20:01;;;;;;;6.68;4.78;;;;;;;2.50;nan;95144.69;2033437;29;20436;-53
2023/11/12 01:21:05;;;;;;;8.45;6.03;;;;;;;2.51;nan;95140.41;2041046;29;20055;-53
2023/11/12 01:22:06;;;;;;;7.57;4.72;;;;;;;2.51;nan;95140.41;2041458;29;20484;-53
2023/11/12 01:23:07;;;;;;;7.15;4.78;;;;;;;2.49;nan;95130.22;2040765;29;20456;-53
2023/11/12 01:24:09;;;;;;;6.68;4.53;;;;;;;2.50;nan;95144.69;2040615;29;20067;-53
2023/11/12 01:25:10;;;;;;;8.60;5.45;;;;;;;2.51;nan;95140.41;2041712;29;20044;-53
2023/11/12 01:26:11;;;;;;;6.97;5.03;;;;;;;2.47;nan;95141.41;2042113;29;20457;-53
2023/11/12 01:27:12;;;;;;;8.90;5.70;;;;;;;2.46;nan;95139.69;2041675;29;20047;-53
2023/11/12 01:28:13;;;;;;;10.40;5.55;;;;;;;2.47;nan;95133.69;2041597;29;20424;-53
2023/11/12 01:29:15;;;;;;;8.43;5.65;;;;;;;2.46;nan;95129.44;2041321;29;20060;-52
2023/11/12 01:30:17;;;;;;;9.57;5.60;;;;;;;2.46;nan;95127.75;2041909;29;20056;-53
2023/11/12 01:31:18;;;;;;;8.60;5.53;;;;;;;2.41;nan;95117.63;2041531;29;20055;-53
2023/11/12 01:32:19;;;;;;;8.60;5.80;;;;;;;2.45;nan;95126.03;2041288;29;20064;-53
2023/11/12 01:33:20;;;;;;;9.65;5.32;;;;;;;2.43;nan;95120.13;2041930;29;20078;-53
2023/11/12 01:34:22;;;;;;;9.27;5.80;;;;;;;2.46;nan;95122.63;2033093;29;20063;-53
2023/11/12 01:35:23;;;;;;;7.88;5.53;;;;;;;2.47;nan;95120.88;2032584;29;20063;-54
2023/11/12 01:36:24;;;;;;;7.97;5.60;;;;;;;2.48;nan;95120.81;2032771;29;20103;-52
2023/11/12 01:37:25;;;;;;;8.73;5.38;;;;;;;2.48;nan;95120.00;2041182;29;20491;-53
2023/11/12 01:38:26;;;;;;;8.55;6.00;;;;;;;2.47;nan;95129.41;2040640;29;20059;-53
2023/11/12 01:39:27;;;;;;;8.15;5.50;;;;;;;2.47;nan;95123.47;2040450;29;20052;-52
2023/11/12 01:40:30;;;;;;;7.00;5.10;;;;;;;2.43;nan;95128.69;2033459;29;20048;-52
2023/11/12 01:41:31;;;;;;;8.02;4.90;;;;;;;2.48;nan;95127.69;2025405;29;20048;-53
2023/11/12 01:42:33;;;;;;;7.80;5.53;;;;;;;2.45;nan;95126.03;2033258;29;20040;-53
2023/11/12 01:43:34;;;;;;;7.75;4.88;;;;;;;2.45;nan;95126.03;2041804;29;20044;-53
2023/11/12 01:44:35;;;;;;;8.05;5.97;;;;;;;2.43;nan;95126.13;2041879;29;20404;-53
2023/11/12 01:45:36;;;;;;;7.18;5.63;;;;;;;2.43;nan;95125.25;2041568;29;20043;-53
2023/11/12 01:46:37;;;;;;;8.50;5.80;;;;;;;2.43;nan;95125.25;2033421;29;20059;-53
2023/11/12 01:47:39;;;;;;;8.20;5.88;;;;;;;2.42;nan;95121.84;2024799;29;20064;-53
2023/11/12 01:48:41;;;;;;;8.18;5.13;;;;;;;2.42;nan;95113.34;2033543;29;20059;-52
2023/11/12 01:49:42;;;;;;;8.88;5.88;;;;;;;2.44;nan;95119.25;2033327;29;20382;-53
2023/11/12 01:50:44;;;;;;;8.48;5.28;;;;;;;2.45;nan;95113.22;2025541;29;20075;-53
2023/11/12 01:51:45;;;;;;;8.43;4.80;;;;;;;2.43;nan;95118.44;2033214;29;20044;-53
2023/11/12 01:52:46;;;;;;;10.68;6.00;;;;;;;2.43;nan;95115.00;2017503;29;20056;-53
2023/11/12 01:53:48;;;;;;;9.45;5.55;;;;;;;2.41;nan;95122.75;2017485;29;20056;-52
2023/11/12 01:54:49;;;;;;;10.10;6.03;;;;;;;2.39;nan;95109.13;2041561;29;20059;-52
2023/11/12 01:55:51;;;;;;;10.20;6.18;;;;;;;2.38;nan;95116.88;2040980;29;20055;-53
2023/11/12 01:56:55;;;;;;;9.90;6.07;;;;;;;2.37;nan;95113.47;2024252;29;20044;-53
2023/11/12 01:57:58;;;;;;;10.40;5.95;;;;;;;2.37;nan;95117.75;2011145;29;20053;-53
2023/11/12 01:58:59;;;;;;;7.65;5.20;;;;;;;2.36;nan;95111.78;2025667;29;20064;-53
2023/11/12 02:00:01;;;;;;;8.20;6.00;;;;;;;2.34;nan;95110.16;2025624;29;20048;-53
2023/11/12 02:01:02;;;;;;;7.40;5.57;;;;;;;2.32;nan;95109.34;2033305;29;20060;-53
2023/11/12 02:02:04;;;;;;;8.45;5.68;;;;;;;2.31;nan;95113.66;2033165;29;20104;-53
2023/11/12 02:03:09;;;;;;;9.40;6.03;;;;;;;2.31;nan;95111.09;2041388;29;20051;-53
2023/11/12 02:04:10;;;;;;;7.90;5.70;;;;;;;2.33;nan;95109.31;2041163;29;20055;-53
2023/11/12 02:05:11;;;;;;;10.13;5.95;;;;;;;2.32;nan;95104.22;2025265;29;20132;-53
2023/11/12 02:06:12;;;;;;;8.98;5.82;;;;;;;2.34;nan;95107.59;2017871;29;20052;-53
2023/11/12 02:07:14;;;;;;;9.98;5.40;;;;;;;2.36;nan;95106.66;2033090;29;20048;-53
2023/11/12 02:08:15;;;;;;;8.55;5.97;;;;;;;2.36;nan;95096.41;2025818;29;20057;-53
2023/11/12 02:09:17;;;;;;;6.47;4.70;;;;;;;2.35;nan;95097.31;2025145;29;20060;-53
2023/11/12 02:10:18;;;;;;;8.43;5.78;;;;;;;2.33;nan;95104.19;2033304;29;20048;-53
2023/11/12 02:11:20;;;;;;;10.02;6.35;;;;;;;2.32;nan;95099.09;2041568;29;20066;-53
2023/11/12 02:12:21;;;;;;;8.60;5.75;;;;;;;2.33;nan;95106.75;2041823;29;20456;-53
2023/11/12 02:13:22;;;;;;;12.20;6.45;;;;;;;2.33;nan;95105.94;2025155;29;20485;-52
2023/11/12 02:14:25;;;;;;;12.10;5.93;;;;;;;2.35;nan;95105.00;2026621;29;20425;-53
2023/11/12 02:15:26;;;;;;;8.18;4.97;;;;;;;2.35;nan;95105.00;2026635;29;20059;-53
2023/11/12 02:16:27;;;;;;;8.50;5.70;;;;;;;2.35;nan;95094.75;2026899;29;20048;-53
2023/11/12 02:17:30;;;;;;;6.18;4.90;;;;;;;2.34;nan;95100.75;2034069;29;20060;-52
2023/11/12 02:18:32;;;;;;;7.68;4.80;;;;;;;2.33;nan;95096.50;2010902;29;20057;-53
2023/11/12 02:19:34;;;;;;;9.75;5.80;;;;;;;2.36;nan;95101.53;2011258;29;20089;-53
2023/11/12 02:20:35;;;;;;;9.15;5.78;;;;;;;2.36;nan;95103.28;2033992;29;20056;-53
2023/11/12 02:21:36;;;;;;;10.35;5.78;;;;;;;2.34;nan;95100.75;2026366;29;20048;-53
2023/11/12 02:22:38;;;;;;;10.32;5.18;;;;;;;2.35;nan;95099.88;2026855;29;20118;-54
2023/11/12 02:23:39;;;;;;;8.77;5.50;;;;;;;2.33;nan;95098.25;2034025;29;20047;-53
2023/11/12 02:24:41;;;;;;;8.95;5.50;;;;;;;2.34;nan;95092.22;2034304;29;20044;-53
2023/11/12 02:25:43;;;;;;;7.22;5.00;;;;;;;2.34;nan;95097.34;2041666;29;20079;-53
2023/11/12 02:26:44;;;;;;;10.00;5.35;;;;;;;2.33;nan;95088.00;2033885;29;20603;-53
2023/11/12 02:27:45;;;;;;;8.48;5.65;;;;;;;2.31;nan;95094.88;2025294;29;20052;-53
2023/11/12 02:28:46;;;;;;;9.82;5.65;;;;;;;2.30;nan;95091.47;2026195;29;20041;-53
2023/11/12 02:29:48;;;;;;;8.55;5.72;;;;;;;2.25;nan;95090.78;2033943;29;20047;-53
2023/11/12 02:30:55;;;;;;;8.65;5.85;;;;;;;2.23;nan;95094.25;2026262;29;20044;-52
2023/11/12 02:31:58;;;;;;;7.20;5.43;;;;;;;2.16;nan;95083.34;2027052;29;20051;-53
2023/11/12 02:33:00;;;;;;;8.32;5.60;;;;;;;2.11;nan;95091.19;2027220;29;20063;-53
2023/11/12 02:34:01;;;;;;;9.98;5.85;;;;;;;2.07;nan;95091.31;2034158;29;20056;-52
2023/11/12 02:35:02;;;;;;;10.00;6.05;;;;;;;2.03;nan;95080.28;2033660;29;20417;-53
2023/11/12 02:36:04;;;;;;;7.82;5.90;;;;;;;1.98;nan;95083.00;2034411;29;20055;-52
2023/11/12 02:37:06;;;;;;;7.95;5.47;;;;;;;1.87;nan;95081.59;2033691;29;20079;-52
2023/11/12 02:38:07;;;;;;;6.47;4.95;;;;;;;1.86;nan;95090.19;2033763;29;20060;-53
2023/11/12 02:39:09;;;;;;;9.82;5.88;;;;;;;1.84;nan;95082.53;2034065;29;20436;-53
2023/11/12 02:40:12;;;;;;;10.00;5.22;;;;;;;1.81;nan;95079.22;2042491;29;20060;-53
2023/11/12 02:41:13;;;;;;;10.10;4.82;;;;;;;1.82;nan;95079.19;2034410;29;20067;-52
2023/11/12 02:42:17;;;;;;;10.25;5.97;;;;;;;1.79;nan;95089.50;2034094;29;20060;-52
2023/11/12 02:43:18;;;;;;;7.85;4.60;;;;;;;1.71;nan;95081.19;2042116;29;20400;-52
2023/11/12 02:44:19;;;;;;;10.93;6.35;;;;;;;1.72;nan;95082.88;2042237;29;20060;-53
2023/11/12 02:45:20;;;;;;;7.93;5.13;;;;;;;1.65;nan;95083.91;2042635;29;20051;-53
2023/11/12 02:46:22;;;;;;;9.88;5.75;;;;;;;1.66;nan;95083.06;2034040;29;20059;-53
2023/11/12 02:47:23;;;;;;;7.80;5.72;;;;;;;1.68;nan;95086.38;2033895;29;20071;-52
2023/11/12 02:48:28;;;;;;;9.20;5.90;;;;;;;1.67;nan;95082.16;2042936;29;20074;-53
2023/11/12 02:49:51;;;;;;;7.30;4.57;;;;;;;1.63;nan;95076.31;2018685;29;20059;-53
2023/11/12 02:50:52;;;;;;;8.48;5.30;;;;;;;1.70;nan;95085.47;2019487;29;20048;-52
2023/11/12 02:51:53;;;;;;;7.93;4.88;;;;;;;1.66;nan;95081.34;2036558;29;20048;-52
2023/11/12 02:52:56;;;;;;;9.02;4.70;;;;;;;1.75;nan;95091.31;2034326;29;20055;-52
2023/11/12 02:53:58;;;;;;;9.02;6.07;;;;;;;1.80;nan;95082.69;2034214;29;20055;-53
2023/11/12 02:54:59;;;;;;;9.25;5.15;;;;;;;1.76;nan;95076.78;2033934;29;20067;-52
2023/11/12 02:56:00;;;;;;;8.80;5.05;;;;;;;1.87;nan;95085.03;2042974;29;20051;-53
2023/11/12 02:57:02;;;;;;;10.73;5.47;;;;;;;1.86;nan;95078.22;2041371;29;20058;-53
2023/11/12 02:58:03;;;;;;;10.32;5.50;;;;;;;2.02;nan;95088.03;2042799;29;20066;-53
2023/11/12 02:59:05;;;;;;;9.55;4.97;;;;;;;2.04;nan;95086.28;2042209;29;20056;-52
2023/11/12 03:00:08;;;;;;;7.93;4.10;;;;;;;2.04;nan;95083.72;2033860;29;20052;-53
2023/11/12 03:01:09;;;;;;;7.45;4.75;;;;;;;2.05;nan;95090.50;2026819;29;20493;-52
2023/11/12 03:02:13;;;;;;;8.52;4.90;;;;;;;2.06;nan;95085.34;2026461;29;20063;-53
2023/11/12 03:03:14;;;;;;;8.13;4.10;;;;;;;2.04;nan;95084.53;2026609;29;20052;-52
2023/11/12 03:04:15;;;;;;;7.57;4.72;;;;;;;2.04;nan;95074.31;2026345;29;20071;-53
2023/11/12 03:05:16;;;;;;;7.93;5.03;;;;;;;2.07;nan;95068.25;2034097;29;20040;-53
2023/11/12 03:06:17;;;;;;;7.18;4.72;;;;;;;2.11;nan;95069.81;2042230;29;20055;-53
2023/11/12 03:07:18;;;;;;;6.70;4.53;;;;;;;2.09;nan;95069.88;2034436;29;20394;-53
2023/11/12 03:08:20;;;;;;;7.80;5.28;;;;;;;2.13;nan;95063.78;2033880;29;20067;-53
2023/11/12 03:09:21;;;;;;;9.52;5.43;;;;;;;2.17;nan;95064.53;2041852;29;20043;-53
2023/11/12 03:10:22;;;;;;;9.88;5.10;;;;;;;2.14;nan;95062.06;2033630;29;20063;-53
2023/11/12 03:11:26;;;;;;;8.25;5.60;;;;;;;2.15;nan;95063.75;2025731;29;20064;-53
2023/11/12 03:12:27;;;;;;;11.25;5.10;;;;;;;2.12;nan;95063.84;2034259;29;20393;-53
2023/11/12 03:13:28;;;;;;;9.52;6.10;;;;;;;2.08;nan;95063.06;2042336;29;20055;-53
2023/11/12 03:14:30;;;;;;;9.55;5.95;;;;;;;2.05;nan;95055.47;2042306;29;20477;-52
2023/11/12 03:15:31;;;;;;;12.60;6.05;;;;;;;2.03;nan;95061.53;2034132;29;20075;-53
2023/11/12 03:16:32;;;;;;;10.32;6.38;;;;;;;1.99;nan;95053.94;2033699;29;20059;-53
2023/11/12 03:17:34;;;;;;;11.15;5.72;;;;;;;1.92;nan;95051.59;2042506;29;20044;-53
2023/11/12 03:18:35;;;;;;;12.52;7.05;;;;;;;1.89;nan;95049.94;2042476;29;20062;-53
2023/11/12 03:19:37;;;;;;;10.77;6.68;;;;;;;1.85;nan;95055.22;2041432;29;20051;-53
2023/11/12 03:20:38;;;;;;;11.13;6.90;;;;;;;1.82;nan;95048.47;2041815;29;20055;-53
2023/11/12 03:21:40;;;;;;;14.88;6.32;;;;;;;1.81;nan;95048.50;2042514;29;20058;-53
2023/11/12 03:22:41;;;;;;;11.70;6.70;;;;;;;1.75;nan;95052.06;2042502;29;20503;-53
2023/11/12 03:23:42;;;;;;;14.05;7.00;;;;;;;1.71;nan;95045.34;2042363;29;20051;-53
2023/11/12 03:24:43;;;;;;;13.73;6.88;;;;;;;1.68;nan;95048.00;2042226;29;20082;-53
2023/11/12 03:25:45;;;;;;;11.98;7.43;;;;;;;1.63;nan;95035.34;2033894;29;20052;-54
2023/11/12 03:26:46;;;;;;;12.07;7.95;;;;;;;1.62;nan;95041.34;2034220;29;20500;-53
2023/11/12 03:27:47;;;;;;;13.55;7.03;;;;;;;1.62;nan;95036.22;2042341;29;20052;-53
2023/11/12 03:28:48;;;;;;;12.80;8.05;;;;;;;1.63;nan;95039.59;2042318;29;20376;-53
2023/11/12 03:29:49;;;;;;;12.95;8.23;;;;;;;1.57;nan;95038.06;2041924;29;20059;-53
2023/11/12 03:30:50;;;;;;;14.80;7.40;;;;;;;1.51;nan;95038.22;2042321;29;20051;-53
2023/11/12 03:31:53;;;;;;;12.23;7.68;;;;;;;1.45;nan;95030.72;2042422;29;20046;-53
2023/11/12 03:32:54;;;;;;;13.20;7.90;;;;;;;1.42;nan;95030.81;2042097;29;20071;-53
2023/11/12 03:33:55;;;;;;;14.70;7.70;;;;;;;1.42;nan;95029.09;2041727;29;20135;-53
2023/11/12 03:34:57;;;;;;;13.82;7.70;;;;;;;1.44;nan;95036.72;2034172;29;20063;-53
2023/11/12 03:35:59;;;;;;;14.73;8.93;;;;;;;1.44;nan;95029.03;2034088;29;20059;-53
2023/11/12 03:37:00;;;;;;;14.70;8.73;;;;;;;1.39;nan;95033.44;2042534;29;20051;-53
2023/11/12 03:38:01;;;;;;;13.48;9.07;;;;;;;1.27;nan;95024.38;2034128;29;20417;-53
2023/11/12 03:39:03;;;;;;;15.25;8.82;;;;;;;1.21;nan;95027.09;2033965;29;20051;-53
2023/11/12 03:40:04;;;;;;;13.75;8.82;;;;;;;1.22;nan;95021.09;2026117;29;20067;-53
2023/11/12 03:41:05;;;;;;;15.68;9.32;;;;;;;1.21;nan;95016.88;2026073;29;20060;-53
2023/11/12 03:42:06;;;;;;;18.33;9.63;;;;;;;1.24;nan;95012.50;2033949;29;20052;-53
2023/11/12 03:43:08;;;;;;;18.17;9.95;;;;;;;1.20;nan;95007.50;2034107;29;20059;-53
2023/11/12 03:44:09;;;;;;;18.35;9.75;;;;;;;1.24;nan;95009.94;2033741;29;20048;-54
2023/11/12 03:45:11;;;;;;;17.85;10.40;;;;;;;1.16;nan;95014.44;2025945;29;20060;-53
2023/11/12 03:46:12;;;;;;;16.88;10.13;;;;;;;1.20;nan;95012.63;2034202;29;20401;-53
2023/11/12 03:47:13;;;;;;;20.50;10.50;;;;;;;1.29;nan;95009.84;2033752;29;20055;-53
2023/11/12 03:48:14;;;;;;;14.95;9.90;;;;;;;1.34;nan;95010.56;2026254;29;20124;-54
2023/11/12 03:49:16;;;;;;;15.70;9.90;;;;;;;1.26;nan;95007.38;2026151;29;20504;-54
2023/11/12 03:50:17;;;;;;;16.42;10.07;;;;;;;1.21;nan;95010.03;2034132;29;20048;-53
2023/11/12 03:51:18;;;;;;;17.35;10.95;;;;;;;1.37;nan;95005.34;2042392;29;20047;-53
2023/11/12 03:52:19;;;;;;;17.05;9.90;;;;;;;1.30;nan;95003.84;2042179;29;20400;-53
2023/11/12 03:53:21;;;;;;;16.33;9.85;;;;;;;1.38;nan;94999.34;2042116;29;20051;-53
2023/11/12 03:54:22;;;;;;;16.40;10.32;;;;;;;1.25;nan;95000.56;2042090;29;20078;-53
2023/11/12 03:55:23;;;;;;;18.17;10.88;;;;;;;1.26;nan;94999.69;2042351;29;20465;-53
2023/11/12 03:56:25;;;;;;;18.13;10.70;;;;;;;1.27;nan;94993.69;2042379;29;20048;-53
2023/11/12 03:57:26;;;;;;;19.90;11.10;;;;;;;1.30;nan;94997.00;2040647;29;20067;-53
2023/11/12 03:58:27;;;;;;;17.45;10.93;;;;;;;1.22;nan;94990.41;2033464;29;20124;-53
2023/11/12 03:59:28;;;;;;;18.23;10.38;;;;;;;1.15;nan;94992.31;2033848;29;20063;-53
2023/11/12 04:00:29;;;;;;;16.50;10.18;;;;;;;1.19;nan;94987.94;2042166;29;20055;-53
2023/11/12 04:01:31;;;;;;;17.25;9.73;;;;;;;1.32;nan;94986.72;2041819;29;20480;-53
2023/11/12 04:02:32;;;;;;;16.25;9.98;;;;;;;1.25;nan;94970.69;2041728;29;20063;-53
2023/11/12 04:03:33;;;;;;;16.73;9.75;;;;;;;1.22;nan;94982.75;2042287;29;20040;-53
2023/11/12 04:04:34;;;;;;;19.27;10.20;;;;;;;0.97;nan;94978.28;2042057;29;20487;-53
2023/11/12 04:05:35;;;;;;;15.98;10.40;;;;;;;0.93;nan;94979.22;2041874;29;20059;-53
2023/11/12 04:06:36;;;;;;;16.08;9.90;;;;;;;0.93;nan;94981.78;2041799;29;20056;-54
2023/11/12 04:07:37;;;;;;;15.07;9.88;;;;;;;1.08;nan;94972.88;2042279;29;20056;-53
2023/11/12 04:08:38;;;;;;;16.58;10.10;;;;;;;1.15;nan;94971.00;2041399;29;20066;-53
2023/11/12 04:09:40;;;;;;;18.50;10.13;;;;;;;1.18;nan;94978.59;2041909;29;20370;-53
2023/11/12 04:10:42;;;;;;;21.30;11.25;;;;;;;1.20;nan;94974.25;2041144;29;20058;-53
2023/11/12 04:11:43;;;;;;;18.90;10.73;;;;;;;1.25;nan;94974.97;2041339;29;20051;-53
2023/11/12 04:12:45;;;;;;;18.92;9.48;;;;;;;1.26;nan;94972.38;2041528;29;20408;-53
2023/11/12 04:13:46;;;;;;;17.52;10.07;;;;;;;1.22;nan;94964.84;2033550;29;20052;-54
2023/11/12 04:14:47;;;;;;;18.45;9.88;;;;;;;1.25;nan;94967.31;2033523;29;20056;-53
2023/11/12 04:15:48;;;;;;;15.32;9.25;;;;;;;1.26;nan;94969.00;2042024;29;20048;-53
2023/11/12 04:16:49;;;;;;;15.02;9.70;;;;;;;1.25;nan;94980.94;2041662;29;20400;-53
2023/11/12 04:17:51;;;;;;;16.67;10.30;;;;;;;1.25;nan;94977.53;2042360;29;20051;-53
2023/11/12 04:18:52;;;;;;;18.02;10.32;;;;;;;1.16;nan;94976.06;2041544;29;20056;-53
2023/11/12 04:19:54;;;;;;;18.08;11.25;;;;;;;1.02;nan;94968.78;2041472;29;20067;-53
2023/11/12 04:20:55;;;;;;;18.27;10.75;;;;;;;0.98;nan;94976.56;2042068;29;20066;-54
2023/11/12 04:21:56;;;;;;;20.75;11.18;;;;;;;0.92;nan;94967.34;2042081;29;20039;-53
2023/11/12 04:22:57;;;;;;;20.85;10.90;;;;;;;0.91;nan;94975.91;2042009;29;20099;-53
2023/11/12 04:23:58;;;;;;;19.73;10.60;;;;;;;0.92;nan;94969.06;2041037;29;20427;-53
2023/11/12 04:24:59;;;;;;;19.30;10.88;;;;;;;0.90;nan;94968.25;2041441;29;20050;-53
2023/11/12 04:26:00;;;;;;;21.48;11.88;;;;;;;0.83;nan;94963.31;2041927;29;20044;-53
2023/11/12 04:27:01;;;;;;;18.20;11.45;;;;;;;0.76;nan;94968.59;2041674;29;20060;-53
2023/11/12 04:28:03;;;;;;;16.70;9.95;;;;;;;0.63;nan;94963.78;2041723;29;20062;-53
2023/11/12 04:29:06;;;;;;;20.70;11.57;;;;;;;0.62;nan;94951.91;2041590;29;20062;-53
2023/11/12 04:30:08;;;;;;;16.50;10.63;;;;;;;0.55;nan;94957.22;2033463;29;20060;-53
2023/11/12 04:31:09;;;;;;;15.90;10.80;;;;;;;0.58;nan;94959.69;2033715;29;20063;-53
2023/11/12 04:32:11;;;;;;;19.33;12.27;;;;;;;0.71;nan;94962.78;2041266;29;20051;-53
2023/11/12 04:33:12;;;;;;;20.90;11.10;;;;;;;0.76;nan;94964.34;2041344;29;20047;-53
2023/11/12 04:34:13;;;;;;;19.58;12.38;;;;;;;0.78;nan;94961.75;2041916;29;20059;-53
2023/11/12 04:35:14;;;;;;;19.75;10.35;;;;;;;0.75;nan;94962.66;2041807;29;20469;-53
2023/11/12 04:36:15;;;;;;;20.67;13.07;;;;;;;0.66;nan;94957.78;2041403;29;20047;-53
2023/11/12 04:37:16;;;;;;;19.33;11.93;;;;;;;0.63;nan;94955.28;2041114;29;20055;-54
2023/11/12 04:38:18;;;;;;;17.65;11.23;;;;;;;0.72;nan;94956.78;2033451;29;20416;-53
2023/11/12 04:39:19;;;;;;;20.90;11.88;;;;;;;0.70;nan;94956.84;2033302;29;20051;-53
2023/11/12 04:40:21;;;;;;;19.63;11.65;;;;;;;0.66;nan;94950.09;2041194;29;20059;-54
2023/11/12 04:41:22;;;;;;;21.10;12.65;;;;;;;0.58;nan;94952.84;2040717;29;20058;-53
2023/11/12 04:42:23;;;;;;;18.20;11.60;;;;;;;0.55;nan;94957.22;2041841;29;20062;-53
2023/11/12 04:43:24;;;;;;;18.63;11.40;;;;;;;0.43;nan;94963.47;2042191;29;20070;-53
2023/11/12 04:44:25;;;;;;;21.75;12.60;;;;;;;0.47;nan;94949.72;2041370;29;20066;-53
2023/11/12 04:45:26;;;;;;;20.17;11.52;;;;;;;0.38;nan;94962.75;2041518;29;20059;-53
2023/11/12 04:46:27;;;;;;;19.55;12.20;;;;;;;0.39;nan;94961.84;2041956;29;20051;-53
2023/11/12 04:47:29;;;;;;;21.45;11.55;;;;;;;0.32;nan;94965.41;2041959;29;20051;-53
2023/11/12 04:48:30;;;;;;;20.00;11.45;;;;;;;0.32;nan;94958.63;2042139;29;20060;-53
2023/11/12 04:49:31;;;;;;;20.58;11.80;;;;;;;0.30;nan;94964.63;2041795;29;20044;-53
2023/11/12 04:50:32;;;;;;;19.73;11.63;;;;;;;0.30;nan;94956.97;2042219;29;20056;-53
2023/11/12 04:51:33;;;;;;;23.08;12.20;;;;;;;0.32;nan;94962.88;2041420;29;20052;-53
2023/11/12 04:52:35;;;;;;;19.55;12.13;;;;;;;0.30;nan;94962.91;2041854;29;20056;-53
2023/11/12 04:53:37;;;;;;;20.42;12.70;;;;;;;0.28;nan;94958.72;2041224;29;20473;-53
2023/11/12 04:54:38;;;;;;;20.17;11.52;;;;;;;0.32;nan;94953.50;2041836;29;20042;-53
2023/11/12 04:55:39;;;;;;;18.23;11.93;;;;;;;0.32;nan;94958.63;2041845;29;20503;-53
2023/11/12 04:56:47;;;;;;;18.83;12.05;;;;;;;0.35;nan;94955.16;2040422;29;20052;-53
2023/11/12 04:57:48;;;;;;;22.10;10.88;;;;;;;0.37;nan;94951.66;2041903;29;20468;-53